Time;durP1;ratioP1;P1;durP2;ratioP2;P2;SDS_P1;SDS_P2;PMS_P1;PMS_P2;Temp;Humidity;BMP_temperature;BMP_pressure;BME280_temperature;BME280_humidity;BME280_pressure;Samples;Min_cycle;Max_cycle;Signal;HPM_P1;HPM_P2
2023/08/09 00:01:35;;;;;;;0.50;0.40;;;14.70;99.90;;;;;;5047139;28;20441;-79
2023/08/09 00:04:02;;;;;;;0.50;0.40;;;14.60;99.90;;;;;;5044258;28;20450;-80
2023/08/09 00:06:29;;;;;;;0.50;0.30;;;14.60;99.90;;;;;;5044063;28;20440;-79
2023/08/09 00:08:55;;;;;;;0.50;0.40;;;14.60;99.90;;;;;;5046663;28;20453;-80
2023/08/09 00:11:22;;;;;;;0.50;0.30;;;14.50;99.90;;;;;;5047803;28;20501;-80
2023/08/09 00:13:51;;;;;;;0.50;0.40;;;14.50;99.90;;;;;;5045542;28;20554;-76
2023/08/09 00:16:18;;;;;;;0.50;0.40;;;14.40;99.90;;;;;;5044150;28;20471;-80
2023/08/09 00:18:44;;;;;;;0.50;0.40;;;14.40;99.90;;;;;;5045344;28;20500;-78
2023/08/09 00:21:11;;;;;;;0.50;0.40;;;14.40;99.90;;;;;;5047722;28;20440;-79
2023/08/09 00:23:38;;;;;;;0.50;0.40;;;14.40;99.90;;;;;;5047435;28;20463;-80
2023/08/09 00:26:05;;;;;;;0.50;0.30;;;14.40;99.90;;;;;;5048233;28;20446;-79
2023/08/09 00:28:33;;;;;;;1.13;1.03;;;14.30;99.90;;;;;;5048021;28;20446;-80
2023/08/09 00:31:02;;;;;;;0.50;0.37;;;14.30;99.90;;;;;;5044147;28;20516;-79
2023/08/09 00:33:29;;;;;;;0.50;0.30;;;14.30;99.90;;;;;;5045333;28;20468;-79
2023/08/09 00:35:56;;;;;;;0.50;0.40;;;14.30;99.90;;;;;;5047180;28;20523;-80
2023/08/09 00:38:22;;;;;;;0.50;0.30;;;14.30;99.90;;;;;;5048814;28;20441;-80
2023/08/09 00:40:49;;;;;;;0.50;0.40;;;14.30;99.90;;;;;;5045474;28;20488;-78
2023/08/09 00:43:16;;;;;;;0.50;0.40;;;14.20;99.90;;;;;;5044442;28;20471;-80
2023/08/09 00:45:47;;;;;;;0.50;0.30;;;14.20;99.90;;;;;;5043454;28;20444;-81
2023/08/09 00:48:15;;;;;;;0.50;0.40;;;14.20;99.90;;;;;;5051256;28;20950;-79
2023/08/09 00:50:42;;;;;;;0.50;0.40;;;14.20;99.90;;;;;;5050591;28;20452;-80
2023/08/09 00:53:09;;;;;;;0.50;0.40;;;14.20;99.90;;;;;;5047762;28;20484;-79
2023/08/09 00:55:36;;;;;;;0.50;0.40;;;14.30;99.90;;;;;;5047180;28;20450;-80
2023/08/09 00:58:03;;;;;;;0.50;0.37;;;14.30;99.90;;;;;;5050742;28;20444;-80
2023/08/09 01:00:30;;;;;;;0.50;0.40;;;14.30;99.90;;;;;;5050585;28;20497;-79
2023/08/09 01:02:57;;;;;;;0.50;0.40;;;14.30;99.90;;;;;;5048007;28;20460;-79
2023/08/09 01:05:30;;;;;;;0.50;0.30;;;14.20;99.90;;;;;;5046925;28;20440;-79
2023/08/09 01:08:05;;;;;;;0.50;0.40;;;14.20;99.90;;;;;;5049358;28;20448;-79
2023/08/09 01:10:39;;;;;;;0.50;0.40;;;14.30;99.90;;;;;;5042487;28;20864;-80
2023/08/09 01:13:09;;;;;;;0.50;0.40;;;14.20;99.90;;;;;;5047247;28;20479;-79
2023/08/09 01:15:39;;;;;;;0.50;0.30;;;14.30;99.90;;;;;;5046248;28;20433;-79
2023/08/09 01:18:08;;;;;;;0.50;0.40;;;14.20;99.90;;;;;;5050095;28;20454;-79
2023/08/09 01:20:38;;;;;;;0.50;0.40;;;14.30;99.90;;;;;;5050031;28;20455;-79
2023/08/09 01:23:14;;;;;;;0.50;0.30;;;14.20;99.90;;;;;;5046231;28;20960;-78
2023/08/09 01:25:43;;;;;;;0.50;0.40;;;14.20;99.90;;;;;;5045169;28;20534;-78
2023/08/09 01:28:10;;;;;;;0.50;0.30;;;14.20;99.90;;;;;;5039021;28;20432;-78
2023/08/09 01:30:37;;;;;;;0.50;0.40;;;14.20;99.90;;;;;;5047072;28;20495;-80
2023/08/09 01:33:05;;;;;;;0.50;0.37;;;14.20;99.90;;;;;;5049187;28;20482;-79
2023/08/09 01:35:37;;;;;;;0.50;0.37;;;14.20;99.90;;;;;;5049017;28;20880;-80
2023/08/09 01:38:10;;;;;;;0.50;0.40;;;14.20;99.90;;;;;;5046319;28;20451;-79
2023/08/09 01:40:39;;;;;;;0.50;0.30;;;14.20;99.90;;;;;;5046561;28;20444;-78
2023/08/09 01:43:07;;;;;;;0.50;0.40;;;14.20;99.90;;;;;;5048293;28;20467;-78
2023/08/09 01:45:35;;;;;;;0.70;0.70;;;14.20;99.90;;;;;;5049235;28;20445;-80
2023/08/09 01:48:02;;;;;;;0.50;0.40;;;14.20;99.90;;;;;;5046715;28;20794;-81
2023/08/09 01:50:29;;;;;;;0.50;0.40;;;14.10;99.90;;;;;;5046257;28;20433;-78
2023/08/09 01:52:56;;;;;;;0.50;0.40;;;14.10;99.90;;;;;;5046961;28;20488;-79
2023/08/09 01:55:25;;;;;;;0.50;0.40;;;14.10;99.90;;;;;;5051778;28;20503;-79
2023/08/09 01:57:52;;;;;;;0.50;0.30;;;14.10;99.90;;;;;;5046334;28;20958;-78
2023/08/09 02:00:22;;;;;;;0.50;0.40;;;14.10;99.90;;;;;;5049484;28;20431;-79
2023/08/09 02:02:50;;;;;;;0.50;0.30;;;14.20;99.90;;;;;;5047792;28;20482;-81
2023/08/09 02:05:17;;;;;;;0.50;0.40;;;14.10;99.90;;;;;;5045271;28;20446;-79
2023/08/09 02:07:44;;;;;;;0.50;0.37;;;14.10;99.90;;;;;;5045591;28;20926;-77
2023/08/09 02:10:12;;;;;;;0.50;0.40;;;14.10;99.90;;;;;;5048654;28;20435;-79
2023/08/09 02:12:39;;;;;;;0.50;0.40;;;14.20;99.90;;;;;;5048470;28;20483;-78
2023/08/09 02:15:07;;;;;;;0.50;0.40;;;14.20;99.90;;;;;;5046040;28;20439;-79
2023/08/09 02:17:35;;;;;;;0.50;0.40;;;14.20;99.90;;;;;;5043973;28;20451;-80
2023/08/09 02:20:05;;;;;;;0.50;0.30;;;14.20;99.90;;;;;;5046711;28;20482;-79
2023/08/09 02:22:37;;;;;;;0.50;0.40;;;14.20;99.90;;;;;;5045589;28;21191;-79
2023/08/09 02:25:04;;;;;;;0.50;0.40;;;14.20;99.90;;;;;;5046794;28;20502;-77
2023/08/09 02:27:31;;;;;;;0.50;0.50;;;14.20;99.90;;;;;;5048908;28;20436;-79
2023/08/09 02:29:58;;;;;;;0.50;0.40;;;14.20;99.90;;;;;;5047166;28;20447;-81
2023/08/09 02:32:25;;;;;;;0.50;0.30;;;14.20;99.90;;;;;;5044831;28;20471;-79
2023/08/09 02:34:53;;;;;;;0.50;0.40;;;14.10;99.90;;;;;;5045206;28;20447;-79
2023/08/09 02:37:20;;;;;;;0.50;0.40;;;14.10;99.90;;;;;;5049261;28;20443;-79
2023/08/09 02:39:46;;;;;;;0.50;0.40;;;14.00;99.90;;;;;;5050008;28;20441;-78
2023/08/09 02:42:13;;;;;;;0.50;0.30;;;14.00;99.90;;;;;;5048717;28;20462;-80
2023/08/09 02:44:40;;;;;;;0.50;0.40;;;14.00;99.90;;;;;;5048738;28;20440;-78
2023/08/09 02:47:08;;;;;;;0.50;0.40;;;14.10;99.90;;;;;;5044897;28;20460;-78
2023/08/09 02:49:34;;;;;;;0.50;0.40;;;14.10;99.90;;;;;;5045476;28;20476;-79
2023/08/09 02:52:03;;;;;;;0.50;0.30;;;14.10;99.90;;;;;;5045807;28;20986;-80
2023/08/09 02:54:30;;;;;;;0.50;0.40;;;14.00;99.90;;;;;;5048603;28;20526;-80
2023/08/09 02:56:56;;;;;;;0.50;0.40;;;14.00;99.90;;;;;;5047062;28;20443;-79
2023/08/09 02:59:23;;;;;;;0.50;0.33;;;14.10;99.90;;;;;;5044828;28;20450;-79
2023/08/09 03:01:50;;;;;;;0.50;0.40;;;14.10;99.90;;;;;;5044204;28;20454;-80
2023/08/09 03:04:17;;;;;;;0.50;0.37;;;14.10;99.90;;;;;;5036612;28;20449;-79
2023/08/09 03:06:43;;;;;;;0.50;0.40;;;14.10;99.90;;;;;;5043818;28;20443;-77
2023/08/09 03:09:11;;;;;;;0.50;0.40;;;14.10;99.90;;;;;;5046205;28;20448;-80
2023/08/09 03:11:38;;;;;;;0.80;0.80;;;14.00;99.90;;;;;;5048122;28;20443;-77
2023/08/09 03:14:05;;;;;;;0.50;0.40;;;14.00;99.90;;;;;;5046019;28;20479;-80
2023/08/09 03:16:32;;;;;;;0.50;0.40;;;14.00;99.90;;;;;;5045045;28;20450;-79
2023/08/09 03:18:59;;;;;;;0.50;0.40;;;14.00;99.90;;;;;;5044880;28;20948;-80
2023/08/09 03:21:26;;;;;;;0.50;0.40;;;14.00;99.90;;;;;;5048296;28;20447;-79
2023/08/09 03:23:53;;;;;;;0.50;0.40;;;14.00;99.90;;;;;;5048493;28;20459;-78
2023/08/09 03:26:21;;;;;;;0.50;0.40;;;14.00;99.90;;;;;;5045850;28;20447;-79
2023/08/09 03:28:48;;;;;;;0.50;0.40;;;13.90;99.90;;;;;;5045838;28;20449;-79
2023/08/09 03:31:15;;;;;;;0.50;0.40;;;13.90;99.90;;;;;;5048041;28;20439;-80
2023/08/09 03:33:41;;;;;;;0.50;0.40;;;13.90;99.90;;;;;;5048696;28;21009;-80
2023/08/09 03:36:09;;;;;;;0.50;0.40;;;13.90;99.90;;;;;;5046568;28;20443;-80
2023/08/09 03:38:35;;;;;;;0.50;0.40;;;13.80;99.90;;;;;;5045726;28;20444;-80
2023/08/09 03:41:02;;;;;;;0.50;0.30;;;13.80;99.90;;;;;;5046117;28;20444;-79
2023/08/09 03:43:31;;;;;;;0.50;0.40;;;13.80;99.90;;;;;;5049417;28;20462;-81
2023/08/09 03:45:57;;;;;;;0.50;0.40;;;13.80;99.90;;;;;;5048111;28;20443;-79
2023/08/09 03:48:24;;;;;;;0.50;0.37;;;13.70;99.90;;;;;;5048917;28;20436;-83
2023/08/09 03:50:51;;;;;;;0.50;0.40;;;13.80;99.90;;;;;;5050134;28;20436;-80
2023/08/09 03:53:18;;;;;;;0.50;0.40;;;13.80;99.90;;;;;;5051236;28;20859;-80
2023/08/09 03:55:44;;;;;;;0.50;0.33;;;13.80;99.90;;;;;;5048980;28;20448;-79
2023/08/09 03:58:11;;;;;;;0.50;0.40;;;13.90;99.90;;;;;;5046718;28;20447;-80
2023/08/09 04:00:39;;;;;;;0.50;0.30;;;13.90;99.90;;;;;;5045642;28;20455;-80
2023/08/09 04:03:06;;;;;;;0.50;0.40;;;13.90;99.90;;;;;;5047627;28;20465;-78
2023/08/09 04:05:35;;;;;;;0.50;0.40;;;13.90;99.90;;;;;;5052378;28;20452;-80
2023/08/09 04:08:03;;;;;;;0.50;0.40;;;13.90;99.90;;;;;;5052267;28;20443;-80
2023/08/09 04:10:29;;;;;;;0.50;0.40;;;13.90;99.90;;;;;;5052588;28;20447;-81
2023/08/09 04:12:56;;;;;;;0.50;0.30;;;14.00;99.90;;;;;;5053172;28;20601;-79
2023/08/09 04:15:23;;;;;;;0.50;0.40;;;14.00;99.90;;;;;;5053449;28;20439;-81
2023/08/09 04:17:52;;;;;;;0.50;0.50;;;14.00;99.90;;;;;;5053323;28;20436;-79
2023/08/09 04:20:19;;;;;;;0.50;0.40;;;14.00;99.90;;;;;;5050524;28;20446;-80
2023/08/09 04:22:45;;;;;;;0.50;0.40;;;14.00;99.90;;;;;;5053346;28;20603;-82
2023/08/09 04:25:12;;;;;;;0.50;0.40;;;13.90;99.90;;;;;;5046413;28;20831;-79
2023/08/09 04:27:40;;;;;;;0.50;0.40;;;13.90;99.90;;;;;;5054780;28;20506;-80
2023/08/09 04:30:09;;;;;;;0.50;0.40;;;13.80;99.90;;;;;;5055166;28;20541;-80
2023/08/09 04:32:37;;;;;;;0.50;0.40;;;13.80;99.90;;;;;;5052194;28;20476;-80
2023/08/09 04:35:06;;;;;;;0.50;0.40;;;13.70;99.90;;;;;;5050739;28;20451;-77
2023/08/09 04:37:32;;;;;;;0.50;0.40;;;13.70;99.90;;;;;;5054249;28;20485;-81
2023/08/09 04:39:59;;;;;;;0.50;0.40;;;13.70;99.90;;;;;;5053423;28;20439;-79
2023/08/09 04:42:27;;;;;;;0.50;0.40;;;13.70;99.90;;;;;;5048930;28;20460;-79
2023/08/09 04:44:54;;;;;;;0.50;0.30;;;13.70;99.90;;;;;;5048530;28;20822;-79
2023/08/09 04:47:22;;;;;;;0.50;0.40;;;13.60;99.90;;;;;;5051042;28;20452;-80
2023/08/09 04:49:49;;;;;;;0.50;0.40;;;13.70;99.90;;;;;;5051951;28;20890;-80
2023/08/09 04:52:17;;;;;;;0.50;0.40;;;13.70;99.90;;;;;;5049365;28;20997;-80
2023/08/09 04:54:44;;;;;;;0.50;0.40;;;13.70;99.90;;;;;;5047691;28;20524;-80
2023/08/09 04:57:11;;;;;;;0.50;0.40;;;13.80;99.90;;;;;;5049577;28;20444;-80
2023/08/09 04:59:38;;;;;;;0.50;0.40;;;13.80;99.90;;;;;;5051415;28;20459;-80
2023/08/09 05:02:05;;;;;;;0.50;0.40;;;13.80;99.90;;;;;;5051309;28;20471;-79
2023/08/09 05:04:32;;;;;;;0.50;0.33;;;13.80;99.90;;;;;;5048703;28;20464;-79
2023/08/09 05:07:00;;;;;;;0.50;0.40;;;13.90;99.90;;;;;;5047930;28;20444;-79
2023/08/09 05:09:28;;;;;;;0.50;0.40;;;13.90;99.90;;;;;;5052510;28;20479;-79
2023/08/09 05:11:55;;;;;;;0.50;0.40;;;13.80;99.90;;;;;;5051547;28;20887;-80
2023/08/09 05:14:22;;;;;;;0.50;0.40;;;13.80;99.90;;;;;;5048879;28;20485;-80
2023/08/09 05:16:49;;;;;;;0.50;0.40;;;13.80;99.90;;;;;;5048233;28;20449;-79
2023/08/09 05:19:16;;;;;;;0.50;0.40;;;13.80;99.90;;;;;;5050127;28;20448;-79
2023/08/09 05:21:43;;;;;;;0.50;0.40;;;13.90;99.90;;;;;;5052198;28;20443;-80
2023/08/09 05:24:09;;;;;;;0.50;0.40;;;14.00;99.90;;;;;;5049773;28;20439;-80
2023/08/09 05:26:38;;;;;;;0.50;0.40;;;14.00;99.90;;;;;;5047519;28;20449;-80
2023/08/09 05:29:05;;;;;;;0.50;0.40;;;14.00;99.90;;;;;;5047445;28;20445;-78
2023/08/09 05:31:31;;;;;;;0.50;0.40;;;14.10;99.90;;;;;;5050352;28;20462;-80
2023/08/09 05:33:58;;;;;;;0.50;0.40;;;14.10;99.90;;;;;;5050933;28;20483;-80
2023/08/09 05:36:25;;;;;;;0.50;0.40;;;14.20;99.90;;;;;;5047790;28;20445;-81
2023/08/09 05:38:52;;;;;;;0.50;0.30;;;14.30;99.90;;;;;;5048932;28;20448;-80
2023/08/09 05:41:19;;;;;;;0.50;0.40;;;14.40;99.90;;;;;;5049819;28;20447;-80
2023/08/09 05:43:47;;;;;;;0.73;0.73;;;14.40;99.90;;;;;;5050514;28;20499;-80
2023/08/09 05:46:13;;;;;;;0.50;0.40;;;14.40;99.90;;;;;;5049383;28;20535;-81
2023/08/09 05:48:40;;;;;;;0.50;0.40;;;14.30;99.90;;;;;;5046917;28;20440;-80
2023/08/09 05:51:07;;;;;;;1.90;1.53;;;14.30;99.90;;;;;;5046673;28;20444;-78
2023/08/09 05:53:34;;;;;;;0.50;0.40;;;14.40;99.90;;;;;;5050511;28;20493;-79
2023/08/09 05:56:00;;;;;;;3.80;3.50;;;14.50;99.90;;;;;;5050253;28;20443;-79
2023/08/09 05:58:27;;;;;;;1.00;0.93;;;14.40;99.90;;;;;;5047563;28;20436;-79
2023/08/09 06:00:56;;;;;;;5.03;4.63;;;14.40;99.90;;;;;;5047193;28;20448;-80
2023/08/09 06:03:23;;;;;;;0.50;0.40;;;14.50;99.90;;;;;;5049296;28;20814;-80
2023/08/09 06:05:50;;;;;;;0.50;0.30;;;14.50;99.90;;;;;;5050899;28;20500;-79
2023/08/09 06:08:17;;;;;;;0.50;0.30;;;14.50;99.90;;;;;;5049505;28;20824;-80
2023/08/09 06:10:45;;;;;;;0.50;0.40;;;14.60;99.90;;;;;;5047264;28;20930;-80
2023/08/09 06:13:11;;;;;;;0.50;0.40;;;14.60;99.90;;;;;;5047680;28;20480;-79
2023/08/09 06:15:38;;;;;;;0.50;0.30;;;14.80;99.90;;;;;;5050403;28;20524;-79
2023/08/09 06:18:07;;;;;;;0.50;0.40;;;14.90;99.90;;;;;;5042611;28;20471;-80
2023/08/09 06:20:34;;;;;;;0.50;0.40;;;15.10;99.90;;;;;;5049750;28;20482;-79
2023/08/09 06:23:01;;;;;;;0.50;0.40;;;15.00;99.90;;;;;;5049749;28;20467;-79
2023/08/09 06:25:27;;;;;;;0.50;0.30;;;15.00;99.90;;;;;;5046905;28;20439;-80
2023/08/09 06:27:54;;;;;;;0.50;0.40;;;15.00;99.90;;;;;;5046495;28;20447;-78
2023/08/09 06:30:21;;;;;;;0.50;0.30;;;15.10;99.90;;;;;;5048475;28;20437;-79
2023/08/09 06:32:49;;;;;;;0.50;0.30;;;15.30;99.90;;;;;;5048923;28;20556;-79
2023/08/09 06:35:18;;;;;;;0.50;0.40;;;15.30;99.90;;;;;;5048311;28;20452;-80
2023/08/09 06:37:46;;;;;;;0.50;0.30;;;15.30;99.90;;;;;;5046492;28;20444;-76
2023/08/09 06:40:16;;;;;;;0.50;0.40;;;15.40;99.90;;;;;;5047603;28;20440;-78
2023/08/09 06:42:43;;;;;;;0.50;0.40;;;15.40;99.90;;;;;;5049340;28;20528;-80
2023/08/09 06:45:11;;;;;;;0.97;0.83;;;15.50;99.90;;;;;;5049729;28;20431;-77
2023/08/09 06:47:38;;;;;;;0.50;0.40;;;15.60;99.90;;;;;;5038254;28;20447;-79
2023/08/09 06:50:05;;;;;;;0.50;0.33;;;15.70;99.90;;;;;;5046848;28;20446;-80
2023/08/09 06:52:36;;;;;;;0.50;0.40;;;15.80;99.90;;;;;;5048905;28;20459;-79
2023/08/09 06:55:02;;;;;;;0.50;0.40;;;15.90;99.90;;;;;;5051132;28;20554;-80
2023/08/09 06:57:29;;;;;;;0.50;0.40;;;16.00;99.90;;;;;;5047748;28;20445;-80
2023/08/09 06:59:56;;;;;;;4.07;1.23;;;16.30;99.90;;;;;;5051922;28;20445;-79
2023/08/09 07:02:23;;;;;;;0.50;0.30;;;16.80;99.90;;;;;;5042159;28;20632;-79
2023/08/09 07:04:54;;;;;;;0.50;0.40;;;17.20;99.90;;;;;;5044158;28;20440;-77
2023/08/09 07:07:20;;;;;;;1.53;1.43;;;17.50;99.90;;;;;;5043048;28;20434;-78
2023/08/09 07:09:51;;;;;;;0.50;0.40;;;17.70;99.90;;;;;;5040764;28;20445;-78
2023/08/09 07:12:19;;;;;;;1.43;1.33;;;18.30;99.90;;;;;;5040884;28;20473;-79
2023/08/09 07:14:46;;;;;;;5.23;4.93;;;18.70;99.90;;;;;;5044165;28;20519;-78
2023/08/09 07:17:13;;;;;;;0.50;0.33;;;19.10;99.90;;;;;;5036279;28;20456;-78
2023/08/09 07:19:40;;;;;;;1.83;1.53;;;19.70;99.90;;;;;;5032992;28;20448;-78
2023/08/09 07:22:07;;;;;;;0.50;0.50;;;19.50;99.90;;;;;;5041090;28;20471;-78
2023/08/09 07:24:33;;;;;;;0.50;0.30;;;19.30;99.90;;;;;;5042531;28;20443;-78
2023/08/09 07:27:01;;;;;;;3.17;2.87;;;19.00;99.90;;;;;;5043358;28;20557;-80
2023/08/09 07:29:28;;;;;;;0.50;0.30;;;18.90;99.90;;;;;;5041416;28;20444;-79
2023/08/09 07:31:55;;;;;;;3.17;0.80;;;19.20;99.90;;;;;;5039872;28;20449;-78
2023/08/09 07:34:22;;;;;;;0.50;0.40;;;19.90;99.90;;;;;;5040666;28;20491;-79
2023/08/09 07:36:48;;;;;;;0.67;0.67;;;20.50;99.90;;;;;;5043344;28;20447;-78
2023/08/09 07:39:15;;;;;;;0.50;0.30;;;20.50;99.90;;;;;;5043301;28;20459;-78
2023/08/09 07:41:42;;;;;;;0.50;0.30;;;20.10;99.90;;;;;;5031636;28;20827;-78
2023/08/09 07:44:10;;;;;;;0.50;0.40;;;19.80;99.90;;;;;;5039757;28;20437;-78
2023/08/09 07:46:37;;;;;;;0.50;0.37;;;20.00;99.90;;;;;;5042213;28;20444;-78
2023/08/09 07:49:04;;;;;;;0.60;0.40;;;20.60;99.90;;;;;;5043463;28;20446;-78
2023/08/09 07:51:31;;;;;;;0.50;0.40;;;21.60;99.90;;;;;;5041242;28;20857;-79
2023/08/09 07:53:58;;;;;;;0.50;0.40;;;22.20;99.90;;;;;;5039720;28;20860;-78
2023/08/09 07:56:24;;;;;;;0.50;0.30;;;21.90;99.90;;;;;;5044222;28;20816;-79
2023/08/09 07:58:53;;;;;;;0.50;0.40;;;21.70;99.90;;;;;;5047685;28;20450;-78
2023/08/09 08:01:21;;;;;;;0.50;0.33;;;21.60;99.90;;;;;;5047805;28;20479;-79
2023/08/09 08:03:48;;;;;;;0.50;0.40;;;21.50;99.90;;;;;;5043635;28;20453;-79
2023/08/09 08:06:16;;;;;;;0.50;0.30;;;21.70;99.90;;;;;;5043753;28;20451;-79
2023/08/09 08:08:45;;;;;;;0.50;0.50;;;21.90;99.90;;;;;;5044172;28;20451;-79
2023/08/09 08:11:12;;;;;;;0.50;0.30;;;21.60;99.90;;;;;;5043379;28;20993;-78
2023/08/09 08:13:39;;;;;;;0.50;0.40;;;21.10;99.90;;;;;;5045634;28;20515;-79
2023/08/09 08:16:06;;;;;;;0.50;0.30;;;20.90;99.90;;;;;;5046156;28;20485;-79
2023/08/09 08:18:34;;;;;;;0.50;0.30;;;21.00;99.90;;;;;;5044964;28;20440;-77
2023/08/09 08:21:03;;;;;;;0.50;0.30;;;20.90;99.90;;;;;;5043471;28;20448;-79
2023/08/09 08:23:30;;;;;;;1.63;1.07;;;21.10;99.90;;;;;;5044490;28;20482;-79
2023/08/09 08:25:57;;;;;;;0.60;0.50;;;21.30;99.90;;;;;;5046025;28;20936;-78
2023/08/09 08:28:23;;;;;;;0.50;0.30;;;21.60;99.90;;;;;;5046525;28;20443;-79
2023/08/09 08:30:50;;;;;;;0.57;0.50;;;21.70;99.90;;;;;;5046341;28;20451;-77
2023/08/09 08:33:17;;;;;;;0.50;0.30;;;21.80;99.90;;;;;;5046105;28;20459;-78
2023/08/09 08:35:48;;;;;;;0.60;0.43;;;21.90;99.90;;;;;;5042493;28;20503;-75
2023/08/09 08:38:16;;;;;;;0.50;0.37;;;22.40;99.90;;;;;;5043519;28;20450;-79
2023/08/09 08:40:43;;;;;;;0.50;0.40;;;23.60;99.90;;;;;;5046215;28;20463;-79
2023/08/09 08:43:10;;;;;;;0.50;0.47;;;24.00;99.90;;;;;;5046416;28;20470;-75
2023/08/09 08:45:38;;;;;;;0.53;0.53;;;24.40;99.90;;;;;;5043660;28;20435;-78
2023/08/09 08:48:07;;;;;;;0.60;0.50;;;24.70;99.90;;;;;;5044826;28;20540;-79
2023/08/09 08:50:37;;;;;;;0.80;0.80;;;24.70;99.90;;;;;;5044325;28;20500;-80
2023/08/09 08:53:06;;;;;;;1.43;1.37;;;24.80;99.90;;;;;;5044692;28;20841;-79
2023/08/09 08:55:33;;;;;;;0.50;0.40;;;24.60;99.90;;;;;;5044484;28;20558;-78
2023/08/09 08:57:59;;;;;;;0.50;0.47;;;23.90;99.90;;;;;;5046479;28;20443;-78
2023/08/09 09:00:26;;;;;;;0.50;0.30;;;23.40;99.90;;;;;;5045542;28;20824;-78
2023/08/09 09:02:53;;;;;;;0.50;0.30;;;22.60;99.90;;;;;;5042439;28;20822;-79
2023/08/09 09:05:20;;;;;;;0.50;0.40;;;22.00;99.90;;;;;;5042289;28;20441;-79
2023/08/09 09:07:50;;;;;;;24.80;23.60;;;21.70;99.90;;;;;;5044368;28;20524;-76
2023/08/09 09:10:19;;;;;;;0.50;0.40;;;21.90;99.90;;;;;;5045765;28;20459;-78
2023/08/09 09:12:46;;;;;;;0.50;0.40;;;21.80;99.90;;;;;;5041927;28;20456;-79
2023/08/09 09:15:14;;;;;;;0.50;0.40;;;21.60;99.90;;;;;;5042083;28;20506;-78
2023/08/09 09:17:43;;;;;;;0.50;0.30;;;22.40;99.90;;;;;;5045286;28;20453;-79
2023/08/09 09:20:18;;;;;;;0.50;0.30;;;23.60;99.90;;;;;;5046805;28;21002;-79
2023/08/09 09:22:46;;;;;;;1.00;0.80;;;25.10;99.90;;;;;;5044955;28;20479;-79
2023/08/09 09:25:15;;;;;;;0.50;0.30;;;26.10;99.90;;;;;;5044946;28;20468;-77
2023/08/09 09:27:43;;;;;;;0.50;0.30;;;27.00;99.90;;;;;;5047404;28;20444;-79
2023/08/09 09:30:13;;;;;;;0.50;0.30;;;27.80;99.90;;;;;;5047889;28;20432;-79
2023/08/09 09:32:41;;;;;;;0.50;0.30;;;27.80;97.10;;;;;;5046313;28;20456;-75
2023/08/09 09:35:11;;;;;;;0.50;0.40;;;27.30;97.20;;;;;;5043434;28;20491;-79
2023/08/09 09:37:37;;;;;;;0.50;0.40;;;26.40;97.60;;;;;;5046886;28;20859;-79
2023/08/09 09:40:10;;;;;;;0.50;0.30;;;26.70;94.10;;;;;;5047347;28;20439;-79
2023/08/09 09:42:37;;;;;;;0.73;0.63;;;26.80;97.80;;;;;;5045921;28;20498;-79
2023/08/09 09:45:08;;;;;;;0.50;0.47;;;26.70;93.10;;;;;;5043340;28;20441;-79
2023/08/09 09:47:38;;;;;;;0.50;0.43;;;27.00;99.90;;;;;;5044879;28;20449;-79
2023/08/09 09:50:08;;;;;;;0.50;0.30;;;27.30;93.10;;;;;;5046326;28;20462;-79
2023/08/09 09:52:36;;;;;;;0.50;0.30;;;26.60;93.00;;;;;;5044784;28;20472;-79
2023/08/09 09:55:04;;;;;;;0.50;0.40;;;25.80;95.90;;;;;;5042511;28;20479;-78
2023/08/09 09:57:31;;;;;;;0.50;0.30;;;25.50;98.90;;;;;;5043457;28;20445;-78
2023/08/09 09:59:59;;;;;;;0.50;0.30;;;26.00;99.90;;;;;;5047444;28;20440;-79
2023/08/09 10:02:31;;;;;;;0.50;0.40;;;26.30;98.10;;;;;;5046614;28;20467;-80
2023/08/09 10:05:02;;;;;;;0.50;0.30;;;26.70;98.70;;;;;;5035273;28;20806;-79
2023/08/09 10:07:31;;;;;;;0.50;0.30;;;26.70;94.40;;;;;;5043073;28;20501;-78
2023/08/09 10:10:01;;;;;;;0.70;0.70;;;26.30;93.70;;;;;;5034984;28;20441;-79
2023/08/09 10:12:28;;;;;;;1.23;0.93;;;25.90;93.70;;;;;;5042871;28;20472;-78
2023/08/09 10:14:56;;;;;;;0.50;0.40;;;25.70;93.90;;;;;;5041579;28;20481;-79
2023/08/09 10:17:29;;;;;;;0.50;0.30;;;25.40;94.50;;;;;;5040758;28;20439;-78
2023/08/09 10:19:58;;;;;;;0.93;0.93;;;25.00;95.30;;;;;;5041699;28;20445;-79
2023/08/09 10:22:26;;;;;;;0.50;0.40;;;24.70;95.70;;;;;;5041769;28;20463;-79
2023/08/09 10:24:57;;;;;;;0.50;0.50;;;24.50;97.00;;;;;;5044384;28;20455;-79
2023/08/09 10:27:46;;;;;;;0.50;0.40;;;24.10;98.60;;;;;;5044574;28;20817;-79
2023/08/09 10:30:14;;;;;;;0.50;0.30;;;23.70;99.90;;;;;;5035338;28;20441;-79
2023/08/09 10:32:52;;;;;;;0.50;0.30;;;23.70;99.90;;;;;;5042313;28;20484;-76
2023/08/09 10:35:21;;;;;;;0.60;0.60;;;23.50;99.90;;;;;;5044593;28;20486;-79
2023/08/09 10:37:48;;;;;;;0.50;0.30;;;23.30;99.90;;;;;;5042964;28;20448;-75
2023/08/09 10:40:18;;;;;;;0.50;0.30;;;23.10;99.90;;;;;;5042019;28;20449;-79
2023/08/09 10:42:46;;;;;;;0.50;0.30;;;23.10;99.90;;;;;;5042432;28;20474;-78
2023/08/09 10:45:14;;;;;;;0.50;0.30;;;23.10;99.90;;;;;;5044410;28;20437;-78
2023/08/09 10:47:41;;;;;;;0.50;0.30;;;23.00;99.90;;;;;;5043404;28;20444;-77
2023/08/09 10:50:14;;;;;;;0.50;0.50;;;22.80;99.90;;;;;;5041159;28;20463;-78
2023/08/09 10:52:47;;;;;;;0.50;0.30;;;22.80;99.90;;;;;;5034622;28;20651;-75
2023/08/09 10:55:28;;;;;;;0.50;0.40;;;23.00;99.90;;;;;;5044873;28;20475;-78
2023/08/09 10:57:58;;;;;;;0.50;0.40;;;23.10;99.90;;;;;;5042290;28;20460;-79
2023/08/09 11:00:26;;;;;;;0.50;0.40;;;23.10;99.90;;;;;;5042035;28;20451;-79
2023/08/09 11:02:55;;;;;;;0.50;0.40;;;23.20;99.90;;;;;;5044299;28;20484;-78
2023/08/09 11:05:24;;;;;;;0.50;0.40;;;23.30;99.90;;;;;;5044475;28;20435;-79
2023/08/09 11:07:53;;;;;;;0.50;0.40;;;23.30;99.90;;;;;;5042553;28;20453;-78
2023/08/09 11:10:33;;;;;;;1.60;1.13;;;23.50;99.90;;;;;;5041341;28;20457;-79
2023/08/09 11:13:05;;;;;;;0.77;0.70;;;23.10;99.90;;;;;;5043122;28;20463;-79
2023/08/09 11:15:32;;;;;;;0.50;0.30;;;22.50;99.90;;;;;;5043405;28;20484;-79
2023/08/09 11:17:59;;;;;;;0.50;0.40;;;22.30;99.90;;;;;;5041049;28;20441;-78
2023/08/09 11:20:27;;;;;;;0.50;0.30;;;22.50;99.90;;;;;;5041543;28;20448;-79
2023/08/09 11:22:55;;;;;;;0.50;0.30;;;22.40;99.90;;;;;;5042875;28;20480;-78
2023/08/09 11:25:22;;;;;;;0.50;0.40;;;22.30;99.90;;;;;;5043926;28;20486;-79
2023/08/09 11:27:52;;;;;;;0.50;0.30;;;22.30;99.90;;;;;;5044991;28;20450;-77
2023/08/09 11:30:19;;;;;;;0.50;0.30;;;22.30;99.90;;;;;;5042956;28;20476;-78
2023/08/09 11:32:55;;;;;;;0.50;0.40;;;22.20;99.90;;;;;;5042379;28;20468;-79
2023/08/09 11:35:29;;;;;;;0.50;0.30;;;22.20;99.90;;;;;;5040898;28;20483;-79
2023/08/09 11:37:55;;;;;;;0.50;0.30;;;22.20;99.90;;;;;;5043031;28;20821;-78
2023/08/09 11:40:23;;;;;;;0.50;0.40;;;22.20;99.90;;;;;;5043875;28;20558;-79
2023/08/09 11:42:55;;;;;;;0.50;0.30;;;22.20;99.90;;;;;;5041351;28;20486;-79
2023/08/09 11:45:22;;;;;;;0.50;0.30;;;22.00;99.90;;;;;;5040286;28;20430;-78
2023/08/09 11:47:51;;;;;;;0.50;0.30;;;22.20;99.90;;;;;;5041066;28;20953;-77
2023/08/09 11:50:22;;;;;;;0.50;0.33;;;22.40;99.90;;;;;;5041043;28;20436;-78
2023/08/09 11:52:53;;;;;;;0.50;0.30;;;22.50;99.90;;;;;;5040781;28;20467;-78
2023/08/09 11:55:21;;;;;;;0.50;0.40;;;22.30;99.90;;;;;;5043202;28;21018;-78
2023/08/09 11:57:48;;;;;;;0.50;0.30;;;22.00;99.90;;;;;;5041038;28;20944;-75
2023/08/09 12:00:17;;;;;;;0.50;0.40;;;22.00;99.90;;;;;;5039719;28;20937;-79
2023/08/09 12:02:44;;;;;;;0.50;0.40;;;22.10;99.90;;;;;;5040453;28;20458;-79
2023/08/09 12:05:12;;;;;;;0.50;0.30;;;22.30;99.90;;;;;;5044270;28;20812;-79
2023/08/09 12:07:39;;;;;;;4.30;3.90;;;22.50;99.90;;;;;;5043613;28;20467;-79
2023/08/09 12:10:13;;;;;;;0.50;0.30;;;22.40;99.90;;;;;;5027230;28;20451;-79
2023/08/09 12:12:42;;;;;;;0.70;0.67;;;22.40;99.90;;;;;;5026807;28;20469;-78
2023/08/09 12:15:10;;;;;;;0.50;0.30;;;22.50;99.90;;;;;;5033287;28;20484;-78
2023/08/09 12:17:37;;;;;;;0.50;0.40;;;22.40;99.90;;;;;;5026304;28;20445;-78
2023/08/09 12:20:09;;;;;;;0.50;0.30;;;22.50;99.90;;;;;;5031838;28;20449;-79
2023/08/09 12:22:37;;;;;;;0.50;0.33;;;22.70;99.90;;;;;;5039779;28;20461;-79
2023/08/09 12:25:05;;;;;;;0.50;0.40;;;23.00;99.90;;;;;;5044083;28;20505;-79
2023/08/09 12:27:33;;;;;;;0.50;0.33;;;23.30;99.90;;;;;;5045613;28;20440;-80
2023/08/09 12:30:00;;;;;;;0.60;0.50;;;23.40;99.90;;;;;;5045020;28;20823;-78
2023/08/09 12:32:28;;;;;;;0.50;0.40;;;23.40;99.90;;;;;;5041211;28;20472;-80
2023/08/09 12:34:55;;;;;;;0.50;0.30;;;23.50;99.90;;;;;;5043099;28;20560;-78
2023/08/09 12:37:22;;;;;;;0.50;0.33;;;23.60;99.90;;;;;;5046101;28;20446;-79
2023/08/09 12:39:49;;;;;;;0.50;0.30;;;23.70;99.90;;;;;;5045776;28;20440;-78
2023/08/09 12:42:16;;;;;;;0.50;0.40;;;23.80;99.90;;;;;;5045450;28;20472;-79
2023/08/09 12:44:44;;;;;;;0.50;0.30;;;24.10;99.90;;;;;;5045863;28;20441;-78
2023/08/09 12:47:11;;;;;;;0.90;0.90;;;24.00;99.90;;;;;;5049467;28;20437;-78
2023/08/09 12:49:38;;;;;;;0.80;0.70;;;24.10;99.90;;;;;;5049519;28;20439;-79
2023/08/09 12:52:05;;;;;;;0.50;0.37;;;24.10;99.90;;;;;;5048458;28;20463;-78